Dame Des Tropiques — FQJE — position and weather

sailwx.info

Track history (hours):
 
Tides and Currents Weather Stations Pressure Air Temp Water Temp Dewpoint Dewpoint Depression Visibility Wind Speed Wind Dir Waves Ship Positions

Dame Des Tropiques

Last reported at 2014-Sep-27 19:27 UTC. Time now 2014-Oct-23 08:47 UTC.
Position N 42°00' E 008°16'.
Warning: this ship's position is 25 days out of date.

Length 28 m.

Type: Sailing vessel. MMSI: 347002100.

Date/timePositionNaut miles runAvg speedWind from/ knotsBaromVisibWave heightAir tempDewpointWater temp
2014-Sep-27 19:27N 42°00' E 008°16'86 6.6
2014-Sep-27 06:30N 42°42' E 006°34'11 5.8
2014-Sep-27 04:33N 42°48' E 006°21'5 5.5
2014-Sep-27 03:33N 42°50' E 006°14'5 5.4
2014-Sep-27 02:33N 42°52' E 006°08'6 5.6
2014-Sep-27 01:33N 42°55' E 006°01'6 5.9
2014-Sep-27 00:33N 42°58' E 005°54'7 6.6
2014-Sep-26 23:33N 43°01' E 005°46'30 7.0
2014-Sep-26 19:18N 43°16' E 005°10'5 6.7
2014-Sep-26 18:33N 43°18' E 005°04'7 6.8
2014-Sep-26 17:33N 43°22' E 004°57'5 4.9
2014-Sep-26 16:33N 43°23' E 004°50'0 0.2
2014-Sep-26 15:31N 43°23' E 004°50'0 0.0
2014-Sep-26 14:31N 43°23' E 004°50'0 0.0
2014-Sep-26 13:28N 43°23' E 004°50'0 0.0
2014-Sep-26 12:31N 43°23' E 004°50'0 0.0
2014-Sep-26 11:31N 43°23' E 004°50'0 0.0
2014-Sep-26 10:28N 43°23' E 004°50'0 0.0
2014-Sep-26 09:25N 43°23' E 004°50'0 0.0
2014-Sep-26 08:28N 43°23' E 004°50'0 0.0
2014-Sep-26 07:28N 43°23' E 004°50'0 0.0
2014-Sep-26 06:31N 43°23' E 004°50'0 0.0
2014-Sep-26 05:31N 43°23' E 004°50'0 0.0
2014-Sep-26 04:25N 43°23' E 004°50'0 0.0
2014-Sep-26 03:31N 43°23' E 004°50'0 0.0
2014-Sep-26 02:31N 43°23' E 004°50'0 0.0
2014-Sep-26 01:31N 43°23' E 004°50'0 0.0
2014-Sep-26 00:31N 43°23' E 004°50'0 0.0
2014-Sep-25 23:31N 43°23' E 004°50'0 0.0
2014-Sep-25 22:28N 43°23' E 004°50'0 0.0
2014-Sep-25 21:31N 43°23' E 004°50'0 0.0
2014-Sep-25 20:31N 43°23' E 004°50'0 0.0
2014-Sep-25 19:28N 43°23' E 004°50'0 0.0
2014-Sep-25 18:31N 43°23' E 004°50'0 0.0
2014-Sep-25 17:31N 43°23' E 004°50'0 0.0
2014-Sep-25 16:31N 43°23' E 004°50'0 0.0
2014-Sep-25 15:28N 43°23' E 004°50'0 0.0
2014-Sep-25 14:31N 43°23' E 004°50'0 0.0
2014-Sep-24 09:11N 43°23' E 004°50'0 0.0
2014-Sep-24 08:32N 43°23' E 004°50'0 0.0
2014-Sep-24 07:32N 43°23' E 004°50'0 0.0
2014-Sep-24 06:32N 43°23' E 004°50'0 0.0
2014-Sep-24 05:20N 43°23' E 004°50'0 0.0
2014-Sep-24 04:32N 43°23' E 004°50'0 0.0
2014-Sep-24 03:32N 43°23' E 004°50'0 0.0
2014-Sep-24 02:29N 43°23' E 004°50'0 0.0
2014-Sep-24 01:26N 43°23' E 004°50'0 0.0
2014-Sep-24 00:32N 43°23' E 004°50'0 0.0
2014-Sep-23 23:32N 43°23' E 004°50'0 0.0
2014-Sep-23 22:32N 43°23' E 004°50'0 0.0
2014-Sep-23 21:32N 43°23' E 004°50'0 0.0
2014-Sep-23 20:30N 43°23' E 004°50'0 0.0
2014-Sep-23 19:32N 43°23' E 004°50'0 0.0
2014-Sep-23 18:33N 43°23' E 004°50'0 0.0
2014-Sep-23 17:33N 43°23' E 004°50'0 0.0
2014-Sep-23 16:33N 43°23' E 004°50'0 0.0
2014-Sep-23 15:33N 43°23' E 004°50'0 0.0
2014-Sep-23 14:33N 43°23' E 004°50'0 0.2
2014-Sep-23 13:33N 43°23' E 004°50'0 0.0
2014-Sep-23 12:33N 43°23' E 004°50'0 0.0
2014-Sep-22 08:27N 43°23' E 004°50'0 0.0
2014-Sep-22 07:27N 43°23' E 004°50'0 0.0
2014-Sep-22 06:29N 43°23' E 004°50'0 0.0
2014-Sep-22 05:32N 43°23' E 004°50'0 0.0
2014-Sep-22 04:32N 43°23' E 004°50'0 0.0
2014-Sep-22 03:32N 43°23' E 004°50'0 0.0
2014-Sep-22 02:32N 43°23' E 004°50'0 0.0
2014-Sep-22 01:32N 43°23' E 004°50'0 0.0
2014-Sep-22 00:29N 43°23' E 004°50'0 0.0
2014-Sep-21 23:32N 43°23' E 004°50'0 0.0
2014-Sep-21 22:32N 43°23' E 004°50'0 0.0
2014-Sep-21 21:32N 43°23' E 004°50'0 0.0
2014-Sep-21 20:32N 43°23' E 004°50'0 0.0
2014-Sep-21 19:32N 43°23' E 004°50'0 0.0
2014-Sep-21 18:32N 43°23' E 004°50'0 0.0
2014-Sep-21 17:32N 43°23' E 004°50'0 0.0
2014-Sep-21 16:32N 43°23' E 004°50'0 0.0
2014-Sep-21 15:32N 43°23' E 004°50'0 0.0
2014-Sep-21 14:32N 43°23' E 004°50'0 0.0
2014-Sep-21 13:29N 43°23' E 004°50'0 0.0
2014-Sep-21 12:33N 43°23' E 004°50'0 0.0
2014-Sep-21 11:33N 43°23' E 004°50'0 0.0
2014-Sep-21 10:33N 43°23' E 004°50'0 0.0
2014-Sep-21 09:33N 43°23' E 004°50'0 0.0
2014-Sep-21 08:33N 43°23' E 004°50'0 0.0
2014-Sep-21 07:33N 43°23' E 004°50'0 0.0
2014-Sep-21 06:33N 43°23' E 004°50'0 0.0
2014-Sep-21 05:33N 43°23' E 004°50'0 0.0
2014-Sep-21 04:30N 43°23' E 004°50'0 0.0
2014-Sep-21 03:33N 43°23' E 004°50'0 0.0
2014-Sep-21 02:33N 43°23' E 004°50'0 0.0
2014-Sep-21 01:30N 43°23' E 004°50'0 0.0
2014-Sep-21 00:33N 43°23' E 004°50'0 0.0
2014-Sep-20 23:33N 43°23' E 004°50'0 0.0
2014-Sep-20 22:30N 43°23' E 004°50'0 0.0
2014-Sep-20 21:33N 43°23' E 004°50'0 0.0
2014-Sep-20 20:27N 43°23' E 004°50'0 0.0
2014-Sep-20 19:33N 43°23' E 004°50'0 0.0
2014-Sep-20 18:33N 43°23' E 004°50'0 0.0
2014-Sep-20 17:33N 43°23' E 004°50'0 0.0
2014-Sep-20 16:33N 43°23' E 004°50'0 0.0
2014-Sep-20 15:33N 43°23' E 004°50'0 0.0
2014-Sep-20 14:33N 43°23' E 004°50'0 0.0
2014-Sep-20 13:33N 43°23' E 004°50'0 0.0
2014-Sep-20 12:33N 43°23' E 004°50'0 0.0
2014-Sep-20 11:33N 43°23' E 004°50'0 0.0
2014-Sep-20 10:33N 43°23' E 004°50'0 0.0
2014-Sep-20 09:33N 43°23' E 004°50'0 0.0
2014-Sep-20 08:33N 43°23' E 004°50'0 0.0
2014-Sep-20 07:33N 43°23' E 004°50'0 0.0
2014-Sep-20 06:33N 43°23' E 004°50'0 0.0
2014-Sep-20 05:33N 43°23' E 004°50'0 0.0
2014-Sep-20 04:33N 43°23' E 004°50'0 0.0
2014-Sep-20 03:33N 43°23' E 004°50'0 0.0
2014-Sep-20 02:33N 43°23' E 004°50'0 0.0
2014-Sep-20 01:33N 43°23' E 004°50'0 0.0
2014-Sep-20 00:33N 43°23' E 004°50'0 0.0
2014-Sep-19 23:33N 43°23' E 004°50'0 0.0
2014-Sep-19 22:33N 43°23' E 004°50'0 0.0
2014-Sep-19 21:33N 43°23' E 004°50'0 0.0
2014-Sep-19 20:33N 43°23' E 004°50'0 0.0
2014-Sep-19 19:33N 43°23' E 004°50'0 0.0
2014-Sep-19 18:33N 43°23' E 004°50'0 0.0
2014-Sep-19 17:30N 43°23' E 004°50'0 0.0
2014-Sep-19 16:33N 43°23' E 004°50'0 0.0
2014-Sep-19 15:33N 43°23' E 004°50'0 0.0
2014-Sep-19 14:33N 43°23' E 004°50'1 0.9
2014-Sep-19 13:33N 43°23' E 004°51'6 5.6
2014-Sep-19 12:33N 43°21' E 004°59'7 6.5
2014-Sep-19 11:33N 43°17' E 005°05'7 7.0
2014-Sep-19 10:33N 43°13' E 005°14'  
Track history (hours):
 
Tides and Currents Weather Stations Pressure Air Temp Water Temp Dewpoint Dewpoint Depression Visibility Wind Speed Wind Dir Waves Ship Positions

Dame Des Tropiques

Last reported at 2014-Sep-27 19:27 UTC. Time now 2014-Oct-23 08:47 UTC.
Position N 42°00' E 008°16'.
Warning: this ship's position is 25 days out of date.

Length 28 m.

Type: Sailing vessel. MMSI: 347002100.

Date/timePositionNaut miles runAvg speedWind from/ knotsBaromVisibWave heightAir tempDewpointWater temp
2014-Sep-27 19:27N 42°00' E 008°16'86 6.6
2014-Sep-27 06:30N 42°42' E 006°34'11 5.8
2014-Sep-27 04:33N 42°48' E 006°21'5 5.5
2014-Sep-27 03:33N 42°50' E 006°14'5 5.4
2014-Sep-27 02:33N 42°52' E 006°08'6 5.6
2014-Sep-27 01:33N 42°55' E 006°01'6 5.9
2014-Sep-27 00:33N 42°58' E 005°54'7 6.6
2014-Sep-26 23:33N 43°01' E 005°46'30 7.0
2014-Sep-26 19:18N 43°16' E 005°10'5 6.7
2014-Sep-26 18:33N 43°18' E 005°04'7 6.8
2014-Sep-26 17:33N 43°22' E 004°57'5 4.9
2014-Sep-26 16:33N 43°23' E 004°50'0 0.2
2014-Sep-26 15:31N 43°23' E 004°50'0 0.0
2014-Sep-26 14:31N 43°23' E 004°50'0 0.0
2014-Sep-26 13:28N 43°23' E 004°50'0 0.0
2014-Sep-26 12:31N 43°23' E 004°50'0 0.0
2014-Sep-26 11:31N 43°23' E 004°50'0 0.0
2014-Sep-26 10:28N 43°23' E 004°50'0 0.0
2014-Sep-26 09:25N 43°23' E 004°50'0 0.0
2014-Sep-26 08:28N 43°23' E 004°50'0 0.0
2014-Sep-26 07:28N 43°23' E 004°50'0 0.0
2014-Sep-26 06:31N 43°23' E 004°50'0 0.0
2014-Sep-26 05:31N 43°23' E 004°50'0 0.0
2014-Sep-26 04:25N 43°23' E 004°50'0 0.0
2014-Sep-26 03:31N 43°23' E 004°50'0 0.0
2014-Sep-26 02:31N 43°23' E 004°50'0 0.0
2014-Sep-26 01:31N 43°23' E 004°50'0 0.0
2014-Sep-26 00:31N 43°23' E 004°50'0 0.0
2014-Sep-25 23:31N 43°23' E 004°50'0 0.0
2014-Sep-25 22:28N 43°23' E 004°50'0 0.0
2014-Sep-25 21:31N 43°23' E 004°50'0 0.0
2014-Sep-25 20:31N 43°23' E 004°50'0 0.0
2014-Sep-25 19:28N 43°23' E 004°50'0 0.0
2014-Sep-25 18:31N 43°23' E 004°50'0 0.0
2014-Sep-25 17:31N 43°23' E 004°50'0 0.0
2014-Sep-25 16:31N 43°23' E 004°50'0 0.0
2014-Sep-25 15:28N 43°23' E 004°50'0 0.0
2014-Sep-25 14:31N 43°23' E 004°50'0 0.0
2014-Sep-24 09:11N 43°23' E 004°50'0 0.0
2014-Sep-24 08:32N 43°23' E 004°50'0 0.0
2014-Sep-24 07:32N 43°23' E 004°50'0 0.0
2014-Sep-24 06:32N 43°23' E 004°50'0 0.0
2014-Sep-24 05:20N 43°23' E 004°50'0 0.0
2014-Sep-24 04:32N 43°23' E 004°50'0 0.0
2014-Sep-24 03:32N 43°23' E 004°50'0 0.0
2014-Sep-24 02:29N 43°23' E 004°50'0 0.0
2014-Sep-24 01:26N 43°23' E 004°50'0 0.0
2014-Sep-24 00:32N 43°23' E 004°50'0 0.0
2014-Sep-23 23:32N 43°23' E 004°50'0 0.0
2014-Sep-23 22:32N 43°23' E 004°50'0 0.0
2014-Sep-23 21:32N 43°23' E 004°50'0 0.0
2014-Sep-23 20:30N 43°23' E 004°50'0 0.0
2014-Sep-23 19:32N 43°23' E 004°50'0 0.0
2014-Sep-23 18:33N 43°23' E 004°50'0 0.0
2014-Sep-23 17:33N 43°23' E 004°50'0 0.0
2014-Sep-23 16:33N 43°23' E 004°50'0 0.0
2014-Sep-23 15:33N 43°23' E 004°50'0 0.0
2014-Sep-23 14:33N 43°23' E 004°50'0 0.2
2014-Sep-23 13:33N 43°23' E 004°50'0 0.0
2014-Sep-23 12:33N 43°23' E 004°50'0 0.0
2014-Sep-22 08:27N 43°23' E 004°50'0 0.0
2014-Sep-22 07:27N 43°23' E 004°50'0 0.0
2014-Sep-22 06:29N 43°23' E 004°50'0 0.0
2014-Sep-22 05:32N 43°23' E 004°50'0 0.0
2014-Sep-22 04:32N 43°23' E 004°50'0 0.0
2014-Sep-22 03:32N 43°23' E 004°50'0 0.0
2014-Sep-22 02:32N 43°23' E 004°50'0 0.0
2014-Sep-22 01:32N 43°23' E 004°50'0 0.0
2014-Sep-22 00:29N 43°23' E 004°50'0 0.0
2014-Sep-21 23:32N 43°23' E 004°50'0 0.0
2014-Sep-21 22:32N 43°23' E 004°50'0 0.0
2014-Sep-21 21:32N 43°23' E 004°50'0 0.0
2014-Sep-21 20:32N 43°23' E 004°50'0 0.0
2014-Sep-21 19:32N 43°23' E 004°50'0 0.0
2014-Sep-21 18:32N 43°23' E 004°50'0 0.0
2014-Sep-21 17:32N 43°23' E 004°50'0 0.0
2014-Sep-21 16:32N 43°23' E 004°50'0 0.0
2014-Sep-21 15:32N 43°23' E 004°50'0 0.0
2014-Sep-21 14:32N 43°23' E 004°50'0 0.0
2014-Sep-21 13:29N 43°23' E 004°50'0 0.0
2014-Sep-21 12:33N 43°23' E 004°50'0 0.0
2014-Sep-21 11:33N 43°23' E 004°50'0 0.0
2014-Sep-21 10:33N 43°23' E 004°50'0 0.0
2014-Sep-21 09:33N 43°23' E 004°50'0 0.0
2014-Sep-21 08:33N 43°23' E 004°50'0 0.0
2014-Sep-21 07:33N 43°23' E 004°50'0 0.0
2014-Sep-21 06:33N 43°23' E 004°50'0 0.0
2014-Sep-21 05:33N 43°23' E 004°50'0 0.0
2014-Sep-21 04:30N 43°23' E 004°50'0 0.0
2014-Sep-21 03:33N 43°23' E 004°50'0 0.0
2014-Sep-21 02:33N 43°23' E 004°50'0 0.0
2014-Sep-21 01:30N 43°23' E 004°50'0 0.0
2014-Sep-21 00:33N 43°23' E 004°50'0 0.0
2014-Sep-20 23:33N 43°23' E 004°50'0 0.0
2014-Sep-20 22:30N 43°23' E 004°50'0 0.0
2014-Sep-20 21:33N 43°23' E 004°50'0 0.0
2014-Sep-20 20:27N 43°23' E 004°50'0 0.0
2014-Sep-20 19:33N 43°23' E 004°50'0 0.0
2014-Sep-20 18:33N 43°23' E 004°50'0 0.0
2014-Sep-20 17:33N 43°23' E 004°50'0 0.0
2014-Sep-20 16:33N 43°23' E 004°50'0 0.0
2014-Sep-20 15:33N 43°23' E 004°50'0 0.0
2014-Sep-20 14:33N 43°23' E 004°50'0 0.0
2014-Sep-20 13:33N 43°23' E 004°50'0 0.0
2014-Sep-20 12:33N 43°23' E 004°50'0 0.0
2014-Sep-20 11:33N 43°23' E 004°50'0 0.0
2014-Sep-20 10:33N 43°23' E 004°50'0 0.0
2014-Sep-20 09:33N 43°23' E 004°50'0 0.0
2014-Sep-20 08:33N 43°23' E 004°50'0 0.0
2014-Sep-20 07:33N 43°23' E 004°50'0 0.0
2014-Sep-20 06:33N 43°23' E 004°50'0 0.0
2014-Sep-20 05:33N 43°23' E 004°50'0 0.0
2014-Sep-20 04:33N 43°23' E 004°50'0 0.0
2014-Sep-20 03:33N 43°23' E 004°50'0 0.0
2014-Sep-20 02:33N 43°23' E 004°50'0 0.0
2014-Sep-20 01:33N 43°23' E 004°50'0 0.0
2014-Sep-20 00:33N 43°23' E 004°50'0 0.0
2014-Sep-19 23:33N 43°23' E 004°50'0 0.0
2014-Sep-19 22:33N 43°23' E 004°50'0 0.0
2014-Sep-19 21:33N 43°23' E 004°50'0 0.0
2014-Sep-19 20:33N 43°23' E 004°50'0 0.0
2014-Sep-19 19:33N 43°23' E 004°50'0 0.0
2014-Sep-19 18:33N 43°23' E 004°50'0 0.0
2014-Sep-19 17:30N 43°23' E 004°50'0 0.0
2014-Sep-19 16:33N 43°23' E 004°50'0 0.0
2014-Sep-19 15:33N 43°23' E 004°50'0 0.0
2014-Sep-19 14:33N 43°23' E 004°50'1 0.9
2014-Sep-19 13:33N 43°23' E 004°51'6 5.6
2014-Sep-19 12:33N 43°21' E 004°59'7 6.5
2014-Sep-19 11:33N 43°17' E 005°05'7 7.0
2014-Sep-19 10:33N 43°13' E 005°14'  

Dump ship's entire track history